Time;durP1;ratioP1;P1;durP2;ratioP2;P2;SDS_P1;SDS_P2;PMS_P1;PMS_P2;Temp;Humidity;BMP_temperature;BMP_pressure;BME280_temperature;BME280_humidity;BME280_pressure;Samples;Min_cycle;Max_cycle;Signal;HPM_P1;HPM_P2
2022/01/06 00:00:24;;;;;;;;;;;;;;;;;;5065349;28;1196;-79
2022/01/06 00:02:50;;;;;;;;;;;;;;;;;;5052791;28;1414;-79
2022/01/06 00:05:21;;;;;;;;;;;;;;;;;;5086490;28;1390;-79
2022/01/06 00:07:46;;;;;;;;;;;;;;;;;;5086178;28;1238;-79
2022/01/06 00:10:21;;;;;;;;;;;;;;;;;;5049851;28;1149;-78
2022/01/06 00:13:05;;;;;;;;;;;;;;;;;;5068052;28;1208;-78
2022/01/06 00:15:38;;;;;;;;;;;;;;;;;;5068182;28;1009;-78
2022/01/06 00:25:58;;;;;;;;;;;;;;;;;;5086012;28;1149;-78
2022/01/06 00:28:27;;;;;;;;;;;;;;;;;;5050646;28;1324;-78
2022/01/06 00:30:52;;;;;;;;;;;;;;;;;;5068052;28;1405;-79
2022/01/06 00:33:27;;;;;;;;;;;;;;;;;;5064759;28;1200;-78
2022/01/06 00:35:52;;;;;;;;;;;;;;;;;;5067889;28;1231;-79
2022/01/06 00:38:27;;;;;;;;;;;;;;;;;;5067674;28;1941;-79
2022/01/06 00:40:53;;;;;;;;;;;;;;;;;;5048357;28;1316;-79
2022/01/06 00:43:27;;;;;;;;;;;;;;;;;;5070096;28;1196;-78
2022/01/06 00:45:52;;;;;;;;;;;;;;;;;;5086998;28;1200;-78
2022/01/06 00:48:21;;;;;;;;;;;;;;;;;;5044599;28;1322;-78
2022/01/06 00:50:53;;;;;;;;;;;;;;;;;;5067457;28;1216;-78
2022/01/06 00:53:29;;;;;;;;;;;;;;;;;;;;;
2022/01/06 00:55:55;;;;;;;;;;;;;;;;;;5066002;28;1192;-79
2022/01/06 00:58:27;;;;;;;;;;;;;;;;;;5070075;28;1910;-79
2022/01/06 01:00:52;;;;;;;;;;;;;;;;;;5085828;28;1033;-79
2022/01/06 01:03:19;;;;;;;;;;;;;;;;;;5087985;28;1184;-79
2022/01/06 01:05:46;;;;;;;;;;;;;;;;;;5064786;28;1163;-79
2022/01/06 01:08:11;;;;;;;;;;;;;;;;;;5069192;28;1211;-79
2022/01/06 01:10:40;;;;;;;;;;;;;;;;;;5080595;28;1419;-79
2022/01/06 01:13:08;;;;;;;;;;;;;;;;;;5067941;28;1259;-79
2022/01/06 01:15:34;;;;;;;;;;;;;;;;;;5083813;28;1165;-79
2022/01/06 01:18:06;;;;;;;;;;;;;;;;;;5086085;28;1913;-80
2022/01/06 01:20:32;;;;;;;;;;;;;;;;;;5083856;28;1243;-77
2022/01/06 01:22:57;;;;;;;;;;;;;;;;;;5059492;28;1252;-78
2022/01/06 01:25:23;;;;;;;;;;;;;;;;;;5081982;28;1259;-78
2022/01/06 01:27:49;;;;;;;;;;;;;;;;;;5068248;28;1260;-78
2022/01/06 01:30:15;;;;;;;;;;;;;;;;;;5050149;28;1600;-78
2022/01/06 01:32:45;;;;;;;;;;;;;;;;;;5065878;28;1318;-78
2022/01/06 01:35:10;;;;;;;;;;;;;;;;;;5067022;28;1258;-78
2022/01/06 01:37:37;;;;;;;;;;;;;;;;;;5066135;28;1894;-79
2022/01/06 01:40:03;;;;;;;;;;;;;;;;;;5083160;28;1173;-79
2022/01/06 01:42:29;;;;;;;;;;;;;;;;;;5079690;28;1284;-79
2022/01/06 01:44:55;;;;;;;;;;;;;;;;;;5083783;28;1148;-79
2022/01/06 01:47:40;;;;;;;;;;;;;;;;;;5062845;28;1152;-78
2022/01/06 01:50:13;;;;;;;;;;;;;;;;;;5059476;28;1063;-78
2022/01/06 01:52:48;;;;;;;;;;;;;;;;;;5048026;28;1252;-79
2022/01/06 01:55:15;;;;;;;;;;;;;;;;;;5070845;28;1318;-79
2022/01/06 01:57:41;;;;;;;;;;;;;;;;;;5067417;28;1885;-78
2022/01/06 02:00:07;;;;;;;;;;;;;;;;;;5066452;28;1300;-79
2022/01/06 02:02:32;;;;;;;;;;;;;;;;;;5048131;28;1345;-79
2022/01/06 02:04:58;;;;;;;;;;;;;;;;;;5085053;28;1227;-79
2022/01/06 02:07:27;;;;;;;;;;;;;;;;;;5067663;28;1227;-79
2022/01/06 02:09:52;;;;;;;;;;;;;;;;;;5064084;28;1254;-78
2022/01/06 02:12:22;;;;;;;;;;;;;;;;;;5065464;28;1389;-78
2022/01/06 02:14:48;;;;;;;;;;;;;;;;;;5065140;28;1211;-80
2022/01/06 02:17:13;;;;;;;;;;;;;;;;;;5084865;28;1914;-78
2022/01/06 02:19:38;;;;;;;;;;;;;;;;;;5083117;28;1022;-78
2022/01/06 02:22:04;;;;;;;;;;;;;;;;;;5045455;28;1142;-77
2022/01/06 02:24:32;;;;;;;;;;;;;;;;;;5081929;28;1090;-78
2022/01/06 02:26:57;;;;;;;;;;;;;;;;;;5064213;28;1189;-78
2022/01/06 02:29:22;;;;;;;;;;;;;;;;;;5068067;28;1153;-79
2022/01/06 02:31:47;;;;;;;;;;;;;;;;;;5067406;28;1148;-78
2022/01/06 02:34:13;;;;;;;;;;;;;;;;;;5084734;28;1287;-78
2022/01/06 02:36:38;;;;;;;;;;;;;;;;;;5064633;28;1224;-78
2022/01/06 02:39:03;;;;;;;;;;;;;;;;;;5085521;28;1889;-79
2022/01/06 02:41:32;;;;;;;;;;;;;;;;;;5064938;28;1168;-79
2022/01/06 02:43:57;;;;;;;;;;;;;;;;;;5068459;28;1212;-78
2022/01/06 02:46:23;;;;;;;;;;;;;;;;;;5064430;28;1152;-77
2022/01/06 02:48:48;;;;;;;;;;;;;;;;;;5048596;28;1161;-77
2022/01/06 02:51:13;;;;;;;;;;;;;;;;;;5086014;28;1141;-77
2022/01/06 02:53:38;;;;;;;;;;;;;;;;;;5082719;28;1299;-77
2022/01/06 02:56:04;;;;;;;;;;;;;;;;;;5082850;28;1125;-77
2022/01/06 02:58:36;;;;;;;;;;;;;;;;;;5083812;28;1952;-78
2022/01/06 03:01:01;;;;;;;;;;;;;;;;;;5065889;28;1204;-79
2022/01/06 03:03:26;;;;;;;;;;;;;;;;;;5066334;28;1196;-78
2022/01/06 03:05:52;;;;;;;;;;;;;;;;;;5063742;28;1113;-78
2022/01/06 03:08:19;;;;;;;;;;;;;;;;;;5086332;28;1224;-78
2022/01/06 03:10:44;;;;;;;;;;;;;;;;;;5060212;28;1321;-78
2022/01/06 03:13:10;;;;;;;;;;;;;;;;;;5066267;28;1221;-78
2022/01/06 03:15:35;;;;;;;;;;;;;;;;;;5062772;28;1141;-78
2022/01/06 03:18:00;;;;;;;;;;;;;;;;;;5057629;28;1914;-78
2022/01/06 03:20:26;;;;;;;;;;;;;;;;;;5083069;28;1220;-77
2022/01/06 03:22:53;;;;;;;;;;;;;;;;;;5064074;28;1138;-78
2022/01/06 03:25:24;;;;;;;;;;;;;;;;;;5082434;28;1141;-78
2022/01/06 03:27:49;;;;;;;;;;;;;;;;;;5039917;28;1145;-78
2022/01/06 03:30:15;;;;;;;;;;;;;;;;;;5051162;28;1276;-78
2022/01/06 03:32:41;;;;;;;;;;;;;;;;;;5086230;28;1169;-78
2022/01/06 03:35:07;;;;;;;;;;;;;;;;;;5086175;28;1208;-77
2022/01/06 03:37:39;;;;;;;;;;;;;;;;;;5078609;28;1890;-79
2022/01/06 03:40:05;;;;;;;;;;;;;;;;;;5059964;28;1392;-78
2022/01/06 03:42:34;;;;;;;;;;;;;;;;;;5082856;28;1190;-78
2022/01/06 03:45:00;;;;;;;;;;;;;;;;;;5061821;28;1176;-78
2022/01/06 03:47:25;;;;;;;;;;;;;;;;;;5068945;28;1516;-78
2022/01/06 03:49:51;;;;;;;;;;;;;;;;;;5064696;28;1216;-77
2022/01/06 03:52:16;;;;;;;;;;;;;;;;;;5052612;28;1334;-78
2022/01/06 03:54:42;;;;;;;;;;;;;;;;;;5047629;28;1188;-78
2022/01/06 03:57:07;;;;;;;;;;;;;;;;;;5066104;28;1890;-78
2022/01/06 03:59:32;;;;;;;;;;;;;;;;;;5067049;28;1077;-78
2022/01/06 04:01:57;;;;;;;;;;;;;;;;;;5067557;28;1180;-78
2022/01/06 04:04:23;;;;;;;;;;;;;;;;;;5052155;28;1187;-78
2022/01/06 04:06:48;;;;;;;;;;;;;;;;;;5066364;28;1382;-78
2022/01/06 04:09:13;;;;;;;;;;;;;;;;;;5049452;28;1309;-78
2022/01/06 04:11:41;;;;;;;;;;;;;;;;;;5047374;28;1212;-78
2022/01/06 04:14:06;;;;;;;;;;;;;;;;;;5052561;28;1186;-79
2022/01/06 04:16:35;;;;;;;;;;;;;;;;;;5068194;28;1355;-79
2022/01/06 04:19:01;;;;;;;;;;;;;;;;;;5085663;28;1930;-78
2022/01/06 04:21:26;;;;;;;;;;;;;;;;;;5066900;28;1370;-79
2022/01/06 04:23:51;;;;;;;;;;;;;;;;;;5047970;28;1122;-79
2022/01/06 04:26:17;;;;;;;;;;;;;;;;;;5066968;28;1241;-79
2022/01/06 04:28:42;;;;;;;;;;;;;;;;;;5085852;28;1157;-78
2022/01/06 04:31:08;;;;;;;;;;;;;;;;;;5069983;28;1332;-79
2022/01/06 04:33:33;;;;;;;;;;;;;;;;;;5068324;28;1401;-78
2022/01/06 04:35:59;;;;;;;;;;;;;;;;;;5066806;28;1090;-79
2022/01/06 04:38:33;;;;;;;;;;;;;;;;;;5052860;28;1929;-79
2022/01/06 04:40:59;;;;;;;;;;;;;;;;;;5064749;28;1370;-78
2022/01/06 04:43:27;;;;;;;;;;;;;;;;;;5070105;28;1214;-78
2022/01/06 04:45:52;;;;;;;;;;;;;;;;;;5058315;28;1090;-80
2022/01/06 04:48:17;;;;;;;;;;;;;;;;;;5068604;28;1231;-78
2022/01/06 04:50:46;;;;;;;;;;;;;;;;;;5084780;28;1077;-78
2022/01/06 04:53:11;;;;;;;;;;;;;;;;;;5086137;28;1140;-78
2022/01/06 04:55:36;;;;;;;;;;;;;;;;;;5064026;28;1224;-79
2022/01/06 04:58:02;;;;;;;;;;;;;;;;;;5050428;28;1922;-79
2022/01/06 05:00:27;;;;;;;;;;;;;;;;;;5068680;28;1286;-79
2022/01/06 05:02:52;;;;;;;;;;;;;;;;;;5066921;28;1270;-79
2022/01/06 05:05:17;;;;;;;;;;;;;;;;;;5067769;28;1247;-80
2022/01/06 05:07:46;;;;;;;;;;;;;;;;;;5084832;28;1013;-79
2022/01/06 05:10:11;;;;;;;;;;;;;;;;;;5082866;28;1302;-78
2022/01/06 05:12:46;;;;;;;;;;;;;;;;;;5066181;28;1260;-79
2022/01/06 05:15:15;;;;;;;;;;;;;;;;;;5068302;28;1183;-79
2022/01/06 05:17:44;;;;;;;;;;;;;;;;;;5068261;28;1902;-79
2022/01/06 05:20:09;;;;;;;;;;;;;;;;;;5067499;28;1200;-79
2022/01/06 05:22:41;;;;;;;;;;;;;;;;;;5067438;28;1192;-79
2022/01/06 05:25:07;;;;;;;;;;;;;;;;;;5063748;28;1276;-79
2022/01/06 05:27:32;;;;;;;;;;;;;;;;;;5064894;28;1125;-79
2022/01/06 05:29:57;;;;;;;;;;;;;;;;;;5067230;28;1614;-80
2022/01/06 05:32:23;;;;;;;;;;;;;;;;;;5050150;28;1267;-79
2022/01/06 05:34:48;;;;;;;;;;;;;;;;;;5071750;28;1172;-79
2022/01/06 05:37:13;;;;;;;;;;;;;;;;;;5067082;28;1937;-79
2022/01/06 05:39:39;;;;;;;;;;;;;;;;;;5083041;28;1175;-80
2022/01/06 05:42:04;;;;;;;;;;;;;;;;;;5081016;28;1207;-79
2022/01/06 05:44:33;;;;;;;;;;;;;;;;;;5066720;28;1307;-79
2022/01/06 05:46:58;;;;;;;;;;;;;;;;;;5066212;28;1046;-79
2022/01/06 05:49:24;;;;;;;;;;;;;;;;;;5050612;28;1306;-80
2022/01/06 05:51:53;;;;;;;;;;;;;;;;;;5064602;28;1129;-79
2022/01/06 05:54:18;;;;;;;;;;;;;;;;;;5083079;28;1228;-79
2022/01/06 05:56:43;;;;;;;;;;;;;;;;;;5049354;28;1270;-80
2022/01/06 05:59:09;;;;;;;;;;;;;;;;;;5084258;28;1922;-79
2022/01/06 06:01:34;;;;;;;;;;;;;;;;;;5051656;28;1209;-78
2022/01/06 06:03:59;;;;;;;;;;;;;;;;;;5048801;28;1324;-78
2022/01/06 06:06:24;;;;;;;;;;;;;;;;;;5085790;28;1048;-79
2022/01/06 06:08:53;;;;;;;;;;;;;;;;;;5083049;28;1168;-78
2022/01/06 06:11:18;;;;;;;;;;;;;;;;;;5070003;28;1276;-79
2022/01/06 06:13:44;;;;;;;;;;;;;;;;;;5067148;28;1133;-79
2022/01/06 06:16:09;;;;;;;;;;;;;;;;;;5066208;28;1153;-79
2022/01/06 06:18:34;;;;;;;;;;;;;;;;;;5067323;28;1914;-79
2022/01/06 06:20:59;;;;;;;;;;;;;;;;;;5084490;28;1153;-79
2022/01/06 06:23:34;;;;;;;;;;;;;;;;;;5051854;28;1303;-80
2022/01/06 06:25:59;;;;;;;;;;;;;;;;;;5063399;28;1183;-79
2022/01/06 06:28:27;;;;;;;;;;;;;;;;;;5085703;28;1215;-79
2022/01/06 06:30:55;;;;;;;;;;;;;;;;;;5084610;28;1346;-80
2022/01/06 06:33:27;;;;;;;;;;;;;;;;;;5067138;28;1126;-79
2022/01/06 06:35:55;;;;;;;;;;;;;;;;;;5083408;28;1171;-79
2022/01/06 06:38:20;;;;;;;;;;;;;;;;;;5066131;28;1960;-79
2022/01/06 06:40:46;;;;;;;;;;;;;;;;;;5080772;28;1073;-79
2022/01/06 06:43:14;;;;;;;;;;;;;;;;;;5083818;28;1311;-78
2022/01/06 06:45:40;;;;;;;;;;;;;;;;;;5065522;28;1145;-79
2022/01/06 06:48:05;;;;;;;;;;;;;;;;;;5065096;28;1090;-79
2022/01/06 06:50:30;;;;;;;;;;;;;;;;;;5049140;28;1452;-79
2022/01/06 06:52:56;;;;;;;;;;;;;;;;;;5082492;28;1185;-79
2022/01/06 06:55:29;;;;;;;;;;;;;;;;;;5062523;28;1446;-80
2022/01/06 06:58:17;;;;;;;;;;;;;;;;;;5048447;28;2022;-80
2022/01/06 07:00:45;;;;;;;;;;;;;;;;;;5064828;28;1196;-78
2022/01/06 07:03:11;;;;;;;;;;;;;;;;;;5082696;28;1132;-79
2022/01/06 07:05:36;;;;;;;;;;;;;;;;;;5052863;28;1580;-79
2022/01/06 07:08:07;;;;;;;;;;;;;;;;;;5068560;28;1482;-78
2022/01/06 07:10:37;;;;;;;;;;;;;;;;;;5083458;28;1317;-81
2022/01/06 07:16:14;;;;;;;;;;;;;;;;;;5084649;28;1026;-80
2022/01/06 07:18:39;;;;;;;;;;;;;;;;;;5082416;28;1977;-79
2022/01/06 07:21:25;;;;;;;;;;;;;;;;;;5086157;28;1278;-80
2022/01/06 07:23:56;;;;;;;;;;;;;;;;;;5076560;28;1189;-79
2022/01/06 07:26:25;;;;;;;;;;;;;;;;;;5082039;28;1335;-77
2022/01/06 07:29:11;;;;;;;;;;;;;;;;;;5107902;28;1183;-79
2022/01/06 07:31:36;;;;;;;;;;;;;;;;;;5107563;28;1191;-79
2022/01/06 07:34:02;;;;;;;;;;;;;;;;;;5104043;28;1187;-79
2022/01/06 07:36:27;;;;;;;;;;;;;;;;;;5106754;28;1161;-78
2022/01/06 07:38:52;;;;;;;;;;;;;;;;;;5098808;28;1906;-79
2022/01/06 07:41:17;;;;;;;;;;;;;;;;;;5065349;28;1129;-79
2022/01/06 07:43:43;;;;;;;;;;;;;;;;;;5088390;28;1144;-79
2022/01/06 07:46:24;;;;;;;;;;;;;;;;;;;;;
2022/01/06 07:49:02;;;;;;;;;;;;;;;;;;5089524;28;1148;-81
2022/01/06 07:51:29;;;;;;;;;;;;;;;;;;5069239;28;1329;-78
2022/01/06 07:53:54;;;;;;;;;;;;;;;;;;5066542;28;1283;-79
2022/01/06 07:56:23;;;;;;;;;;;;;;;;;;5063691;28;1393;-79
2022/01/06 07:58:48;;;;;;;;;;;;;;;;;;5063442;28;1986;-78
2022/01/06 08:01:14;;;;;;;;;;;;;;;;;;5068814;28;1256;-78
2022/01/06 08:03:40;;;;;;;;;;;;;;;;;;5087729;28;1272;-79
2022/01/06 08:06:05;;;;;;;;;;;;;;;;;;5067747;28;1195;-79
2022/01/06 08:08:37;;;;;;;;;;;;;;;;;;5052112;28;1290;-79
2022/01/06 08:11:03;;;;;;;;;;;;;;;;;;5084482;28;1305;-78
2022/01/06 08:13:28;;;;;;;;;;;;;;;;;;5087803;28;1228;-78
2022/01/06 08:15:54;;;;;;;;;;;;;;;;;;5068287;28;1240;-79
2022/01/06 08:18:19;;;;;;;;;;;;;;;;;;5069644;28;1945;-79
2022/01/06 08:20:45;;;;;;;;;;;;;;;;;;5068971;28;1442;-77
2022/01/06 08:23:10;;;;;;;;;;;;;;;;;;5067017;28;1299;-80
2022/01/06 08:25:36;;;;;;;;;;;;;;;;;;5062755;28;1239;-80
2022/01/06 08:28:04;;;;;;;;;;;;;;;;;;5085561;28;1108;-79
2022/01/06 08:30:30;;;;;;;;;;;;;;;;;;5067637;28;1268;-79
2022/01/06 08:32:56;;;;;;;;;;;;;;;;;;5085592;28;1164;-79
2022/01/06 08:35:22;;;;;;;;;;;;;;;;;;5065486;28;1359;-80
2022/01/06 08:37:47;;;;;;;;;;;;;;;;;;5086414;28;1976;-80
2022/01/06 08:40:13;;;;;;;;;;;;;;;;;;5083971;28;1192;-80
2022/01/06 08:42:38;;;;;;;;;;;;;;;;;;5070471;28;1174;-79
2022/01/06 08:45:07;;;;;;;;;;;;;;;;;;5066155;28;1192;-81
2022/01/06 08:47:32;;;;;;;;;;;;;;;;;;5085327;28;1219;-79
2022/01/06 08:49:58;;;;;;;;;;;;;;;;;;5051415;28;1347;-78
2022/01/06 08:52:23;;;;;;;;;;;;;;;;;;5065233;28;1159;-79
2022/01/06 08:54:49;;;;;;;;;;;;;;;;;;5083620;28;1184;-80
2022/01/06 08:57:14;;;;;;;;;;;;;;;;;;5048241;28;1991;-78
2022/01/06 08:59:40;;;;;;;;;;;;;;;;;;5067637;28;1129;-80
2022/01/06 09:02:05;;;;;;;;;;;;;;;;;;5084723;28;1212;-79
2022/01/06 09:04:30;;;;;;;;;;;;;;;;;;5085859;28;1125;-78
2022/01/06 09:06:56;;;;;;;;;;;;;;;;;;5084822;28;1167;-80
2022/01/06 09:09:21;;;;;;;;;;;;;;;;;;5061916;28;1222;-80
2022/01/06 09:11:47;;;;;;;;;;;;;;;;;;5047512;28;1324;-79
2022/01/06 09:14:12;;;;;;;;;;;;;;;;;;5065280;28;1157;-78
2022/01/06 09:16:38;;;;;;;;;;;;;;;;;;5067138;28;1199;-78
2022/01/06 09:19:13;;;;;;;;;;;;;;;;;;5066579;28;1963;-79
2022/01/06 09:21:38;;;;;;;;;;;;;;;;;;5083579;28;1200;-78
2022/01/06 09:24:10;;;;;;;;;;;;;;;;;;5064604;28;1176;-79
2022/01/06 09:26:36;;;;;;;;;;;;;;;;;;5065150;28;1113;-79
2022/01/06 09:29:21;;;;;;;;;;;;;;;;;;5067809;28;1396;-78
2022/01/06 09:31:46;;;;;;;;;;;;;;;;;;5084273;28;1155;-79
2022/01/06 09:34:12;;;;;;;;;;;;;;;;;;5083232;28;1137;-78
2022/01/06 09:36:38;;;;;;;;;;;;;;;;;;5066688;28;1291;-78
2022/01/06 09:39:04;;;;;;;;;;;;;;;;;;5083751;28;1940;-78
2022/01/06 09:41:30;;;;;;;;;;;;;;;;;;5080703;28;1160;-79
2022/01/06 09:43:56;;;;;;;;;;;;;;;;;;5084894;28;1347;-79
2022/01/06 09:46:21;;;;;;;;;;;;;;;;;;5064772;28;1212;-79
2022/01/06 09:48:47;;;;;;;;;;;;;;;;;;5067144;28;1674;-80
2022/01/06 09:51:13;;;;;;;;;;;;;;;;;;5084574;28;1176;-79
2022/01/06 09:53:38;;;;;;;;;;;;;;;;;;5063404;28;1212;-78
2022/01/06 09:56:04;;;;;;;;;;;;;;;;;;5063118;28;1109;-79
2022/01/06 09:58:30;;;;;;;;;;;;;;;;;;5063665;28;1886;-79
2022/01/06 10:00:56;;;;;;;;;;;;;;;;;;5067402;28;1309;-78
2022/01/06 10:03:37;;;;;;;;;;;;;;;;;;5083184;28;1208;-79
2022/01/06 10:06:30;;;;;;;;;;;;;;;;;;5066942;28;1370;-79
2022/01/06 10:08:59;;;;;;;;;;;;;;;;;;5077752;28;1183;-79
2022/01/06 10:11:29;;;;;;;;;;;;;;;;;;5082012;28;1351;-78
2022/01/06 10:13:56;;;;;;;;;;;;;;;;;;5064522;28;1157;-78
2022/01/06 10:16:22;;;;;;;;;;;;;;;;;;5081209;28;1172;-77
2022/01/06 10:18:54;;;;;;;;;;;;;;;;;;5084239;28;1898;-77
2022/01/06 10:21:20;;;;;;;;;;;;;;;;;;5081620;28;1203;-78
2022/01/06 10:23:56;;;;;;;;;;;;;;;;;;5064136;28;1376;-78
2022/01/06 10:26:22;;;;;;;;;;;;;;;;;;5078805;28;1026;-79
2022/01/06 10:28:50;;;;;;;;;;;;;;;;;;5066110;28;1341;-79
2022/01/06 10:31:18;;;;;;;;;;;;;;;;;;5063639;28;1304;-78
2022/01/06 10:33:43;;;;;;;;;;;;;;;;;;5050655;28;1173;-78
2022/01/06 10:36:09;;;;;;;;;;;;;;;;;;5083313;28;1231;-79
2022/01/06 10:38:51;;;;;;;;;;;;;;;;;;5082699;28;1957;-79
2022/01/06 10:41:16;;;;;;;;;;;;;;;;;;5084831;28;1081;-79
2022/01/06 10:43:48;;;;;;;;;;;;;;;;;;5087847;28;1191;-79
2022/01/06 10:46:26;;;;;;;;;;;;;;;;;;5069307;28;1183;-79
2022/01/06 10:48:56;;;;;;;;;;;;;;;;;;5090340;28;1189;-77
2022/01/06 10:51:32;;;;;;;;;;;;;;;;;;5054813;28;1817;-77
2022/01/06 10:53:58;;;;;;;;;;;;;;;;;;5067441;28;1372;-77
2022/01/06 10:56:24;;;;;;;;;;;;;;;;;;5066579;28;1199;-76
2022/01/06 10:58:50;;;;;;;;;;;;;;;;;;5068914;28;1941;-76
2022/01/06 11:01:16;;;;;;;;;;;;;;;;;;5068083;28;1144;-76
2022/01/06 11:03:42;;;;;;;;;;;;;;;;;;5069206;28;1124;-76
2022/01/06 11:06:07;;;;;;;;;;;;;;;;;;5087498;28;1136;-76
2022/01/06 11:08:38;;;;;;;;;;;;;;;;;;5048880;28;1213;-77
2022/01/06 11:13:32;;;;;;;;;;;;;;;;;;5085333;28;1088;-76
2022/01/06 11:15:58;;;;;;;;;;;;;;;;;;5085958;28;1279;-75
2022/01/06 11:18:24;;;;;;;;;;;;;;;;;;5086519;28;1949;-76
2022/01/06 11:20:49;;;;;;;;;;;;;;;;;;5086373;28;1176;-79
2022/01/06 11:23:22;;;;;;;;;;;;;;;;;;5089437;28;1176;-78
2022/01/06 11:26:01;;;;;;;;;;;;;;;;;;5084361;28;1180;-77
2022/01/06 11:28:29;;;;;;;;;;;;;;;;;;5087297;28;1247;-76
2022/01/06 11:30:55;;;;;;;;;;;;;;;;;;5087425;28;1219;-74
2022/01/06 11:33:20;;;;;;;;;;;;;;;;;;5068001;28;1281;-75
2022/01/06 11:35:47;;;;;;;;;;;;;;;;;;5053600;28;1160;-73
2022/01/06 11:38:15;;;;;;;;;;;;;;;;;;5088833;28;1898;-74
2022/01/06 11:40:41;;;;;;;;;;;;;;;;;;5049028;28;1435;-74
2022/01/06 11:43:06;;;;;;;;;;;;;;;;;;5088653;28;1307;-75
2022/01/06 11:45:31;;;;;;;;;;;;;;;;;;5068427;28;1152;-75
2022/01/06 11:48:01;;;;;;;;;;;;;;;;;;5070034;28;1098;-74
2022/01/06 11:50:26;;;;;;;;;;;;;;;;;;5065803;28;1189;-75
2022/01/06 11:52:59;;;;;;;;;;;;;;;;;;5088915;28;1173;-77
2022/01/06 11:55:29;;;;;;;;;;;;;;;;;;5063395;28;1161;-75
2022/01/06 11:57:54;;;;;;;;;;;;;;;;;;5068238;28;1878;-76
2022/01/06 12:00:21;;;;;;;;;;;;;;;;;;5069203;28;1174;-76
2022/01/06 12:03:16;;;;;;;;;;;;;;;;;;5069327;28;1250;-77
2022/01/06 12:05:52;;;;;;;;;;;;;;;;;;5071184;28;1511;-76
2022/01/06 12:08:19;;;;;;;;;;;;;;;;;;5069138;28;1209;-76
2022/01/06 12:10:49;;;;;;;;;;;;;;;;;;5061442;28;1408;-79
2022/01/06 12:13:16;;;;;;;;;;;;;;;;;;5086662;28;1195;-82
2022/01/06 12:15:49;;;;;;;;;;;;;;;;;;5049162;28;1264;-81
2022/01/06 12:18:35;;;;;;;;;;;;;;;;;;5067689;28;1906;-81
2022/01/06 12:21:00;;;;;;;;;;;;;;;;;;5067134;28;1203;-81
2022/01/06 12:23:26;;;;;;;;;;;;;;;;;;5067222;28;1161;-81
2022/01/06 12:25:56;;;;;;;;;;;;;;;;;;5062071;28;1205;-83
2022/01/06 12:28:29;;;;;;;;;;;;;;;;;;5085503;28;1224;-82
2022/01/06 12:30:58;;;;;;;;;;;;;;;;;;5051585;28;1184;-82
2022/01/06 12:33:25;;;;;;;;;;;;;;;;;;5085767;28;1161;-81
2022/01/06 12:35:55;;;;;;;;;;;;;;;;;;5066103;28;1294;-82
2022/01/06 12:38:31;;;;;;;;;;;;;;;;;;5086154;28;1943;-82
2022/01/06 12:40:57;;;;;;;;;;;;;;;;;;5063228;28;1222;-82
2022/01/06 12:43:27;;;;;;;;;;;;;;;;;;5072981;28;1109;-81
2022/01/06 12:46:09;;;;;;;;;;;;;;;;;;5069657;28;1196;-82
2022/01/06 12:48:38;;;;;;;;;;;;;;;;;;5065655;28;1268;-82
2022/01/06 12:51:04;;;;;;;;;;;;;;;;;;5084938;28;1276;-81
2022/01/06 12:53:48;;;;;;;;;;;;;;;;;;5065295;28;1220;-82
2022/01/06 12:56:29;;;;;;;;;;;;;;;;;;5076276;28;1105;-82
2022/01/06 12:58:55;;;;;;;;;;;;;;;;;;5085839;28;1894;-82
2022/01/06 13:01:21;;;;;;;;;;;;;;;;;;5084630;28;1253;-82
2022/01/06 13:03:51;;;;;;;;;;;;;;;;;;5083578;28;1032;-81
2022/01/06 13:06:16;;;;;;;;;;;;;;;;;;5084463;28;1199;-81
2022/01/06 13:08:43;;;;;;;;;;;;;;;;;;5063737;28;1286;-82
2022/01/06 13:11:08;;;;;;;;;;;;;;;;;;5065005;28;1288;-81
2022/01/06 13:13:51;;;;;;;;;;;;;;;;;;5064415;28;1188;-81
2022/01/06 13:16:24;;;;;;;;;;;;;;;;;;5081949;28;1306;-82
2022/01/06 13:19:00;;;;;;;;;;;;;;;;;;5083057;28;1906;-81
2022/01/06 13:21:31;;;;;;;;;;;;;;;;;;5082144;28;1204;-81
2022/01/06 13:24:09;;;;;;;;;;;;;;;;;;5067038;28;1524;-81
2022/01/06 13:26:43;;;;;;;;;;;;;;;;;;5078670;28;1131;-80
2022/01/06 13:29:08;;;;;;;;;;;;;;;;;;5084750;28;1176;-81
2022/01/06 13:31:34;;;;;;;;;;;;;;;;;;5046807;28;1133;-82
2022/01/06 13:33:59;;;;;;;;;;;;;;;;;;5066790;28;1334;-81
2022/01/06 13:36:34;;;;;;;;;;;;;;;;;;5065619;28;1347;-82
2022/01/06 13:39:07;;;;;;;;;;;;;;;;;;5066558;28;1893;-81
2022/01/06 13:41:38;;;;;;;;;;;;;;;;;;5061438;28;1228;-81
2022/01/06 13:44:06;;;;;;;;;;;;;;;;;;5067076;28;1193;-81
2022/01/06 13:46:50;;;;;;;;;;;;;;;;;;5064890;28;1457;-82
2022/01/06 13:51:59;;;;;;;;;;;;;;;;;;5067415;28;1057;-83
2022/01/06 13:54:28;;;;;;;;;;;;;;;;;;5065096;28;1224;-81
2022/01/06 13:56:53;;;;;;;;;;;;;;;;;;5080187;28;1133;-81
2022/01/06 13:59:18;;;;;;;;;;;;;;;;;;5084882;28;1967;-75
2022/01/06 14:01:45;;;;;;;;;;;;;;;;;;5062660;28;1152;-82
2022/01/06 14:04:20;;;;;;;;;;;;;;;;;;5083473;28;1117;-82
2022/01/06 14:06:48;;;;;;;;;;;;;;;;;;5063898;28;1287;-81
2022/01/06 14:09:13;;;;;;;;;;;;;;;;;;5083336;28;1099;-83
2022/01/06 14:11:38;;;;;;;;;;;;;;;;;;5051328;28;1272;-82
2022/01/06 14:14:05;;;;;;;;;;;;;;;;;;5060552;28;1140;-82
2022/01/06 14:16:30;;;;;;;;;;;;;;;;;;5043892;28;1231;-81
2022/01/06 14:18:55;;;;;;;;;;;;;;;;;;5067846;28;1965;-82
2022/01/06 14:21:20;;;;;;;;;;;;;;;;;;5065716;28;1153;-81
2022/01/06 14:23:46;;;;;;;;;;;;;;;;;;5064081;28;1370;-82
2022/01/06 14:26:11;;;;;;;;;;;;;;;;;;5083293;28;1212;-81
2022/01/06 14:28:40;;;;;;;;;;;;;;;;;;5049455;28;1376;-82
2022/01/06 14:31:06;;;;;;;;;;;;;;;;;;5066243;28;1110;-83
2022/01/06 14:33:38;;;;;;;;;;;;;;;;;;5065008;28;1251;-81
2022/01/06 14:36:04;;;;;;;;;;;;;;;;;;5083959;28;1164;-82
2022/01/06 14:38:31;;;;;;;;;;;;;;;;;;5083746;28;1890;-81
2022/01/06 14:40:57;;;;;;;;;;;;;;;;;;5046012;28;1218;-81
2022/01/06 14:43:22;;;;;;;;;;;;;;;;;;5049710;28;1305;-82
2022/01/06 14:45:50;;;;;;;;;;;;;;;;;;5085197;28;1129;-82
2022/01/06 14:48:16;;;;;;;;;;;;;;;;;;5086035;28;1216;-82
2022/01/06 14:50:42;;;;;;;;;;;;;;;;;;5049069;28;1266;-81
2022/01/06 14:53:07;;;;;;;;;;;;;;;;;;5086108;28;1196;-81
2022/01/06 14:55:33;;;;;;;;;;;;;;;;;;5044993;28;1157;-82
2022/01/06 14:57:58;;;;;;;;;;;;;;;;;;5083724;28;1885;-82
2022/01/06 15:00:24;;;;;;;;;;;;;;;;;;5066833;28;1529;-81
2022/01/06 15:02:50;;;;;;;;;;;;;;;;;;5083655;28;1160;-81
2022/01/06 15:05:17;;;;;;;;;;;;;;;;;;5066514;28;1324;-80
2022/01/06 15:07:43;;;;;;;;;;;;;;;;;;5062452;28;1333;-80
2022/01/06 15:10:09;;;;;;;;;;;;;;;;;;5065186;28;1368;-81
2022/01/06 15:12:35;;;;;;;;;;;;;;;;;;5064674;28;1417;-81
2022/01/06 15:15:00;;;;;;;;;;;;;;;;;;5065016;28;1081;-81
2022/01/06 15:17:25;;;;;;;;;;;;;;;;;;5086200;28;1971;-81
2022/01/06 15:19:51;;;;;;;;;;;;;;;;;;5065072;28;1188;-83
2022/01/06 15:22:18;;;;;;;;;;;;;;;;;;5065886;28;1235;-82
2022/01/06 15:24:44;;;;;;;;;;;;;;;;;;5062282;28;1502;-82
2022/01/06 15:27:09;;;;;;;;;;;;;;;;;;5066505;28;1195;-81
2022/01/06 15:29:34;;;;;;;;;;;;;;;;;;5088428;28;1180;-81
2022/01/06 15:32:00;;;;;;;;;;;;;;;;;;5053202;28;1198;-82
2022/01/06 15:34:25;;;;;;;;;;;;;;;;;;5051433;28;1327;-83
2022/01/06 15:36:50;;;;;;;;;;;;;;;;;;5068047;28;1137;-82
2022/01/06 15:39:16;;;;;;;;;;;;;;;;;;5083839;28;2014;-83
2022/01/06 15:41:47;;;;;;;;;;;;;;;;;;5065623;28;1145;-83
2022/01/06 15:44:13;;;;;;;;;;;;;;;;;;5052658;28;1204;-83
2022/01/06 15:46:40;;;;;;;;;;;;;;;;;;5069477;28;1548;-82
2022/01/06 15:49:13;;;;;;;;;;;;;;;;;;5070436;28;1358;-84
2022/01/06 15:51:39;;;;;;;;;;;;;;;;;;5069299;28;1321;-82
2022/01/06 15:54:04;;;;;;;;;;;;;;;;;;5063088;28;1258;-84
2022/01/06 15:56:30;;;;;;;;;;;;;;;;;;5065745;28;1206;-83
2022/01/06 16:05:18;;;;;;;;;;;;;;;;;;5079934;28;1033;-82
2022/01/06 16:07:46;;;;;;;;;;;;;;;;;;5059433;28;1348;-83
2022/01/06 16:10:12;;;;;;;;;;;;;;;;;;5065821;28;1196;-83
2022/01/06 16:12:38;;;;;;;;;;;;;;;;;;5066873;28;1176;-83
2022/01/06 16:15:04;;;;;;;;;;;;;;;;;;5065095;28;1212;-83
2022/01/06 16:17:29;;;;;;;;;;;;;;;;;;5067243;28;1996;-83
2022/01/06 16:19:55;;;;;;;;;;;;;;;;;;5066036;28;1219;-82
2022/01/06 16:22:21;;;;;;;;;;;;;;;;;;5085111;28;1279;-83
2022/01/06 16:24:54;;;;;;;;;;;;;;;;;;5082624;28;1249;-85
2022/01/06 16:27:19;;;;;;;;;;;;;;;;;;5070304;28;1249;-84
2022/01/06 16:29:47;;;;;;;;;;;;;;;;;;5090940;28;1057;-84
2022/01/06 16:32:23;;;;;;;;;;;;;;;;;;5067960;28;1210;-84
2022/01/06 16:35:00;;;;;;;;;;;;;;;;;;5060052;28;1336;-84
2022/01/06 16:37:25;;;;;;;;;;;;;;;;;;5061903;28;1941;-77
2022/01/06 16:39:53;;;;;;;;;;;;;;;;;;5041965;28;1193;-80
2022/01/06 16:42:36;;;;;;;;;;;;;;;;;;5058468;28;1199;-79
2022/01/06 16:45:01;;;;;;;;;;;;;;;;;;5053916;28;1028;-81
2022/01/06 16:47:26;;;;;;;;;;;;;;;;;;5057768;28;1144;-81
2022/01/06 16:49:55;;;;;;;;;;;;;;;;;;5040069;28;1338;-80
2022/01/06 16:52:20;;;;;;;;;;;;;;;;;;5060703;28;1248;-81
2022/01/06 16:54:47;;;;;;;;;;;;;;;;;;5091712;28;1101;-80
2022/01/06 16:57:13;;;;;;;;;;;;;;;;;;5046657;28;1170;-81
2022/01/06 16:59:38;;;;;;;;;;;;;;;;;;5057879;28;1945;-79
2022/01/06 17:02:03;;;;;;;;;;;;;;;;;;5078738;28;1219;-80
2022/01/06 17:04:29;;;;;;;;;;;;;;;;;;5044023;28;1220;-81
2022/01/06 17:06:54;;;;;;;;;;;;;;;;;;5075966;28;1203;-78
2022/01/06 17:09:19;;;;;;;;;;;;;;;;;;5063618;28;1223;-77
2022/01/06 17:11:57;;;;;;;;;;;;;;;;;;5055260;28;1129;-80
2022/01/06 17:14:23;;;;;;;;;;;;;;;;;;5081958;28;1116;-78
2022/01/06 17:16:48;;;;;;;;;;;;;;;;;;5042876;28;1225;-77
2022/01/06 17:19:14;;;;;;;;;;;;;;;;;;5044053;28;1969;-79
2022/01/06 17:21:39;;;;;;;;;;;;;;;;;;5062386;28;1208;-78
2022/01/06 17:24:05;;;;;;;;;;;;;;;;;;5057085;28;1323;-78
2022/01/06 17:26:30;;;;;;;;;;;;;;;;;;5044397;28;1125;-78
2022/01/06 17:28:58;;;;;;;;;;;;;;;;;;5058465;28;1180;-79